createdAt,value
2022-09-18T00:03:32.749Z,101687.25
2022-09-18T00:08:57.750Z,101686.19
2022-09-18T00:14:22.801Z,101687.25
2022-09-18T00:19:44.446Z,101676.41
2022-09-18T00:25:07.259Z,101675.53
2022-09-18T00:30:28.946Z,101689.41
2022-09-18T00:35:50.597Z,101689.41
2022-09-18T00:41:24.043Z,101681.09
2022-09-18T00:46:46.307Z,101701.56
2022-09-18T00:52:09.092Z,101689.41
2022-09-18T00:57:34.453Z,101694.09
2022-09-18T01:02:56.708Z,101692.41
2022-09-18T01:08:43.874Z,101683.84
2022-09-18T01:14:52.237Z,101674.69
2022-09-18T01:20:35.487Z,101688.78
2022-09-18T01:26:15.173Z,101672.16
2022-09-18T01:32:24.200Z,101670.66
2022-09-18T01:38:04.072Z,101665.97
2022-09-18T01:43:29.493Z,101666.19
2022-09-18T01:48:57.303Z,101667.06
2022-09-18T01:54:24.872Z,101659.81
2022-09-18T01:59:51.966Z,101655.97
2022-09-18T02:05:23.027Z,101647.63
2022-09-18T02:10:51.494Z,101636.75
2022-09-18T02:16:23.956Z,101632.06
2022-09-18T02:21:49.253Z,101629.28
2022-09-18T02:27:13.661Z,101635.09
2022-09-18T02:32:40.290Z,101638.44
2022-09-18T02:38:22.911Z,101644.00
2022-09-18T02:44:05.013Z,101640.63
2022-09-18T02:49:59.044Z,101624.00
2022-09-18T02:55:44.403Z,101623.13
2022-09-18T03:01:08.138Z,101626.16
2022-09-18T03:06:29.786Z,101617.81
2022-09-18T03:11:52.081Z,101619.75
2022-09-18T03:17:13.836Z,101619.75
2022-09-18T03:22:35.514Z,101618.91
2022-09-18T03:27:57.189Z,101615.25
2022-09-18T03:33:18.944Z,101609.72
2022-09-18T03:38:41.844Z,101606.94
2022-09-18T03:44:06.491Z,101601.66
2022-09-18T03:49:28.163Z,101594.16
2022-09-18T03:54:49.835Z,101590.56
2022-09-18T04:00:12.467Z,101589.72
2022-09-18T04:05:35.136Z,101592.50
2022-09-18T04:10:56.871Z,101589.72
2022-09-18T04:16:19.025Z,101586.09
2022-09-18T04:21:41.176Z,101586.09
2022-09-18T04:27:03.197Z,101576.94
2022-09-18T04:32:24.865Z,101595.47
2022-09-18T04:37:46.527Z,101625.16
2022-09-18T04:43:10.493Z,101615.13
2022-09-18T04:48:32.130Z,101623.47
2022-09-18T04:53:53.776Z,101609.81
2022-09-18T04:59:15.528Z,101606.19
2022-09-18T05:04:37.252Z,101617.28
2022-09-18T05:09:59.092Z,101606.19
2022-09-18T05:15:21.883Z,101589.56
2022-09-18T05:20:43.507Z,101594.25
2022-09-18T05:26:05.345Z,101586.16
2022-09-18T05:31:27.022Z,101595.34
2022-09-18T05:36:48.678Z,101603.66
2022-09-18T05:42:10.796Z,101605.34
2022-09-18T05:47:35.368Z,101604.50
2022-09-18T05:53:01.535Z,101599.78
2022-09-18T05:58:23.196Z,101608.09
2022-09-18T06:03:44.824Z,101606.19
2022-09-18T06:09:06.774Z,101592.34
2022-09-18T06:14:28.388Z,101597.25
2022-09-18T06:19:50.528Z,101598.97
2022-09-18T06:25:12.326Z,101597.25
2022-09-18T06:30:35.973Z,101585.91
2022-09-18T06:35:58.325Z,101594.25
2022-09-18T06:41:20.032Z,101581.50
2022-09-18T06:46:41.803Z,101587.88
2022-09-18T06:52:03.572Z,101593.41
2022-09-18T06:57:25.224Z,101583.16
2022-09-18T07:02:46.850Z,101585.09
2022-09-18T07:08:09.802Z,101591.47
2022-09-18T07:13:32.604Z,101593.41
2022-09-18T07:18:54.239Z,101587.25
2022-09-18T07:24:15.886Z,101593.66
2022-09-18T07:29:37.527Z,101597.50
2022-09-18T07:34:59.166Z,101598.34
2022-09-18T07:40:20.908Z,101602.19
2022-09-18T07:45:44.242Z,101598.34
2022-09-18T07:51:06.447Z,101604.97
2022-09-18T07:56:28.140Z,101595.81
2022-09-18T08:01:51.598Z,101605.81
2022-09-18T08:07:13.515Z,101601.97
2022-09-18T08:12:35.206Z,101601.97
2022-09-18T08:17:56.952Z,101598.59
2022-09-18T08:23:18.606Z,101603.25
2022-09-18T08:28:40.244Z,101608.81
2022-09-18T08:34:01.905Z,101613.28
2022-09-18T08:39:23.636Z,101618.19
2022-09-18T08:45:00.566Z,101638.22
2022-09-18T08:50:25.190Z,101649.56
2022-09-18T08:55:49.851Z,101637.84
2022-09-18T09:01:16.744Z,101629.28
2022-09-18T09:06:50.575Z,101629.28
2022-09-18T09:12:43.070Z,101617.38
2022-09-18T09:18:23.077Z,101607.59
2022-09-18T09:23:50.620Z,101602.06
2022-09-18T09:29:19.044Z,101587.13
2022-09-18T09:34:54.702Z,101597.50
2022-09-18T09:40:22.983Z,101587.50
2022-09-18T09:45:48.382Z,101577.22
2022-09-18T09:51:50.726Z,101578.94
2022-09-18T09:57:23.538Z,101567.84
2022-09-18T10:02:57.936Z,101570.59
2022-09-18T10:08:27.789Z,101576.16
2022-09-18T10:14:07.978Z,101572.56
2022-09-18T10:19:37.713Z,101573.38
2022-09-18T10:25:07.818Z,101566.75
2022-09-18T10:30:29.484Z,101565.06
2022-09-18T10:35:54.996Z,101563.97
2022-09-18T10:41:36.070Z,101562.28
2022-09-18T10:47:06.653Z,101563.97
2022-09-18T10:52:34.021Z,101554.59
2022-09-18T10:57:58.403Z,101551.19
2022-09-18T11:03:22.658Z,101550.38
2022-09-18T11:08:50.821Z,101540.34
2022-09-18T11:14:23.398Z,101538.41
2022-09-18T11:19:52.714Z,101549.50
2022-09-18T11:25:14.968Z,101554.66
2022-09-18T11:30:38.768Z,101557.19
2022-09-18T11:36:05.532Z,101544.44
2022-09-18T11:41:35.280Z,101547.22
2022-09-18T11:47:15.048Z,101555.53
2022-09-18T11:52:51.999Z,101557.44
2022-09-18T12:09:15.817Z,101562.63
2022-09-18T12:14:43.139Z,101547.91
2022-09-18T12:20:29.761Z,101538.28
2022-09-18T12:25:54.046Z,101540.06
2022-09-18T12:31:33.762Z,101534.66
2022-09-18T12:37:28.718Z,101547.91
2022-09-18T12:43:08.416Z,101535.97
2022-09-18T12:48:45.739Z,101538.75
2022-09-18T12:54:13.128Z,101534.28
2022-09-18T13:05:07.335Z,101532.13
2022-09-18T13:16:13.635Z,101526.13
2022-09-18T13:21:41.812Z,101519.94
2022-09-18T13:27:09.813Z,101522.72
2022-09-18T13:32:35.149Z,101530.44
2022-09-18T13:38:18.834Z,101559.84
2022-09-18T13:43:45.754Z,101552.84
2022-09-18T13:49:26.435Z,101543.66
2022-09-18T13:55:13.947Z,101542.84
2022-09-18T14:00:35.594Z,101520.25
2022-09-18T14:05:57.340Z,101536.88
2022-09-18T14:11:24.309Z,101539.66
2022-09-18T14:16:48.197Z,101534.13
2022-09-18T14:22:34.432Z,101536.88
2022-09-18T14:27:58.251Z,101528.19
2022-09-18T14:33:20.976Z,101517.34
2022-09-18T14:38:42.709Z,101518.44
2022-09-18T14:44:06.403Z,101515.66
2022-09-18T14:49:35.424Z,101519.03
2022-09-18T14:55:09.433Z,101530.13
2022-09-18T15:00:33.372Z,101524.88
2022-09-18T15:06:04.769Z,101503.88
2022-09-18T15:11:37.785Z,101496.53
2022-09-18T15:17:28.334Z,101502.00
2022-09-18T15:22:51.510Z,101510.38
2022-09-18T15:28:13.198Z,101533.66
2022-09-18T15:33:37.996Z,101524.81
2022-09-18T15:39:00.694Z,101525.28
2022-09-18T15:44:34.399Z,101507.75
2022-09-18T15:49:56.633Z,101521.69
2022-09-18T15:55:22.831Z,101513.72
2022-09-18T16:00:56.030Z,101529.06
2022-09-18T16:06:26.940Z,101510.47
2022-09-18T16:11:48.586Z,101519.19
2022-09-18T16:17:28.684Z,101512.31
2022-09-18T16:22:52.085Z,101518.66
2022-09-18T16:28:25.315Z,101525.44
2022-09-18T16:34:04.918Z,101516.34
2022-09-18T16:39:27.145Z,101511.88
2022-09-18T16:44:48.768Z,101509.47
2022-09-18T16:50:11.511Z,101503.28
2022-09-18T16:55:34.306Z,101512.81
2022-09-18T17:00:57.215Z,101516.97
2022-09-18T17:06:19.440Z,101513.47
2022-09-18T17:11:41.181Z,101506.63
2022-09-18T17:17:04.312Z,101508.78
2022-09-18T17:22:26.106Z,101507.09
2022-09-18T17:27:50.996Z,101509.63
2022-09-18T17:33:12.721Z,101519.41
2022-09-18T17:38:38.027Z,101540.22
2022-09-18T17:44:00.154Z,101576.78
2022-09-18T17:49:21.853Z,101571.31
2022-09-18T17:54:43.657Z,101580.88
2022-09-18T18:00:06.334Z,101586.81
2022-09-18T18:05:28.569Z,101579.44
2022-09-18T18:10:50.201Z,101594.31
2022-09-18T18:16:17.082Z,101593.47
2022-09-18T18:21:41.460Z,101598.41
2022-09-18T18:27:04.605Z,101596.34
2022-09-18T18:32:26.543Z,101614.09
2022-09-18T18:37:48.260Z,101634.38
2022-09-18T18:43:14.488Z,101639.84
2022-09-18T18:48:37.009Z,101652.50
2022-09-18T18:54:02.955Z,101662.25
2022-09-18T18:59:25.737Z,101676.94
2022-09-18T19:04:47.372Z,101690.81
2022-09-18T19:10:09.595Z,101696.81
2022-09-18T19:15:31.359Z,101700.63
2022-09-18T19:20:58.332Z,101691.06
2022-09-18T19:26:21.325Z,101698.66
2022-09-18T19:31:45.070Z,101687.34
2022-09-18T19:37:11.557Z,101704.72
2022-09-18T19:42:35.229Z,101691.72
2022-09-18T19:47:57.438Z,101694.59
2022-09-18T19:53:20.187Z,101705.81
2022-09-18T19:58:42.386Z,101704.38
2022-09-18T20:04:04.521Z,101704.22
2022-09-18T20:09:29.171Z,101707.34
2022-09-18T20:14:51.009Z,101713.72
2022-09-18T20:20:16.244Z,101711.78
2022-09-18T20:25:39.105Z,101722.00
2022-09-18T20:31:09.104Z,101713.94
2022-09-18T20:36:32.194Z,101715.84
2022-09-18T20:41:54.046Z,101719.84
2022-09-18T20:47:17.825Z,101719.38
2022-09-18T20:52:43.207Z,101723.63
2022-09-18T20:58:06.221Z,101723.88
2022-09-18T21:03:27.913Z,101730.41
2022-09-18T21:08:53.469Z,101740.84
2022-09-18T21:14:20.243Z,101743.38
2022-09-18T21:19:41.889Z,101757.63
2022-09-18T21:25:03.680Z,101748.53
2022-09-18T21:30:26.782Z,101756.75
2022-09-18T21:35:53.157Z,101752.16
2022-09-18T21:41:15.334Z,101775.34
2022-09-18T21:46:39.210Z,101768.59
2022-09-18T21:52:06.382Z,101768.22
2022-09-18T21:57:28.296Z,101775.56
2022-09-18T22:02:53.486Z,101776.03
2022-09-18T22:08:16.589Z,101783.78
2022-09-18T22:13:39.071Z,101781.25
2022-09-18T22:19:01.285Z,101785.31
2022-09-18T22:24:25.608Z,101792.22
2022-09-18T22:29:47.266Z,101795.69
2022-09-18T22:35:09.550Z,101785.06
2022-09-18T22:40:32.642Z,101790.00
2022-09-18T22:46:01.294Z,101790.47
2022-09-18T22:51:27.008Z,101803.75
2022-09-18T22:56:50.005Z,101807.00
2022-09-18T23:02:11.687Z,101813.00
2022-09-18T23:07:34.064Z,101817.13
2022-09-18T23:12:55.711Z,101816.75
2022-09-18T23:18:18.617Z,101819.75
2022-09-18T23:23:44.229Z,101820.00
2022-09-18T23:29:08.743Z,101824.06
2022-09-18T23:34:32.024Z,101817.25
2022-09-18T23:39:53.711Z,101818.34
2022-09-18T23:45:15.366Z,101822.44
2022-09-18T23:50:37.013Z,101822.91
2022-09-18T23:56:13.302Z,101824.59
